TimeMDT,TemperatureF,Dew PointF,Humidity,Sea Level PressureIn,VisibilityMPH,Wind Direction,Wind SpeedMPH,Gust SpeedMPH,PrecipitationIn,Events,Conditions,WindDirDegrees,DateUTC
12:53 AM,53.1,34.0,48,29.94,10.0,ENE,4.6,-,N/A,,Clear,70,2012-09-06 06:53:00
1:53 AM,54.0,32.0,43,29.93,10.0,East,4.6,-,N/A,,Clear,80,2012-09-06 07:53:00
2:53 AM,52.0,35.1,53,29.94,10.0,ENE,3.5,-,N/A,,Clear,70,2012-09-06 08:53:00
3:53 AM,50.0,36.0,59,29.94,10.0,NE,4.6,-,N/A,,Clear,50,2012-09-06 09:53:00
4:53 AM,48.0,34.0,58,29.96,10.0,NE,3.5,-,N/A,,Clear,50,2012-09-06 10:53:00
5:53 AM,46.0,36.0,68,29.97,10.0,Calm,Calm,-,N/A,,Clear,0,2012-09-06 11:53:00
6:53 AM,46.9,33.1,59,29.99,10.0,Calm,Calm,-,N/A,,Clear,0,2012-09-06 12:53:00
7:53 AM,48.0,35.1,61,30.02,10.0,North,-9999.0,-,N/A,,Clear,0,2012-09-06 13:53:00
8:53 AM,57.0,32.0,39,30.01,10.0,Calm,Calm,-,N/A,,Clear,0,2012-09-06 14:53:00
9:53 AM,64.0,32.0,30,30.03,10.0,Calm,Calm,-,N/A,,Clear,0,2012-09-06 15:53:00
10:53 AM,71.1,35.1,27,30.03,10.0,SE,3.5,-,N/A,,Clear,130,2012-09-06 16:53:00
11:53 AM,79.0,30.0,17,29.99,10.0,Variable,3.5,-,N/A,,Clear,0,2012-09-06 17:53:00
12:53 PM,82.9,21.0,10,29.96,10.0,Variable,4.6,-,N/A,,Partly Cloudy,0,2012-09-06 18:53:00
1:53 PM,84.9,26.1,12,29.94,10.0,North,4.6,-,N/A,,Clear,350,2012-09-06 19:53:00
2:53 PM,89.1,26.1,10,29.91,10.0,Variable,6.9,-,N/A,,Clear,0,2012-09-06 20:53:00
3:53 PM,87.1,25.0,10,29.90,10.0,WNW,8.1,-,N/A,,Clear,300,2012-09-06 21:53:00
4:53 PM,84.9,28.9,13,29.89,10.0,WNW,15.0,-,N/A,,Clear,290,2012-09-06 22:53:00
5:53 PM,86.0,28.9,13,29.90,10.0,West,6.9,-,N/A,,Clear,280,2012-09-06 23:53:00
6:53 PM,84.0,32.0,15,29.89,10.0,NW,8.1,-,N/A,,Clear,320,2012-09-07 00:53:00
7:53 PM,70.0,43.0,38,29.93,10.0,SSE,3.5,-,N/A,,Clear,160,2012-09-07 01:53:00
9:53 PM,64.0,39.9,41,29.95,10.0,ENE,8.1,-,N/A,,Partly Cloudy,70,2012-09-07 03:53:00
10:53 PM,62.1,39.0,43,29.94,10.0,NE,9.2,-,N/A,,Clear,50,2012-09-07 04:53:00
11:53 PM,64.0,42.1,45,29.92,10.0,NE,6.9,-,N/A,,Clear,50,2012-09-07 05:53:00